sensor_id;sensor_type;location;lat;lon;timestamp;temperature;humidity
78619;DHT22;67941;52.506;5.470;2023-05-16T00:00:09;9.40;83.30
78619;DHT22;67941;52.506;5.470;2023-05-16T00:02:38;9.40;83.40
78619;DHT22;67941;52.506;5.470;2023-05-16T00:05:07;9.40;83.40
78619;DHT22;67941;52.506;5.470;2023-05-16T00:07:41;9.40;83.30
78619;DHT22;67941;52.506;5.470;2023-05-16T00:10:13;9.40;83.30
78619;DHT22;67941;52.506;5.470;2023-05-16T00:12:42;9.40;83.20
78619;DHT22;67941;52.506;5.470;2023-05-16T00:15:14;9.40;83.10
78619;DHT22;67941;52.506;5.470;2023-05-16T00:17:45;9.40;83.10
78619;DHT22;67941;52.506;5.470;2023-05-16T00:20:15;9.30;83.20
78619;DHT22;67941;52.506;5.470;2023-05-16T00:22:48;9.40;83.40
78619;DHT22;67941;52.506;5.470;2023-05-16T00:25:19;9.40;83.60
78619;DHT22;67941;52.506;5.470;2023-05-16T00:27:48;9.40;83.70
78619;DHT22;67941;52.506;5.470;2023-05-16T00:30:17;9.40;83.90
78619;DHT22;67941;52.506;5.470;2023-05-16T00:32:47;9.50;83.90
78619;DHT22;67941;52.506;5.470;2023-05-16T00:35:16;9.50;83.80
78619;DHT22;67941;52.506;5.470;2023-05-16T00:37:45;9.50;83.90
78619;DHT22;67941;52.506;5.470;2023-05-16T00:40:13;9.50;83.90
78619;DHT22;67941;52.506;5.470;2023-05-16T00:42:45;9.50;84.00
78619;DHT22;67941;52.506;5.470;2023-05-16T00:45:14;9.60;84.10
78619;DHT22;67941;52.506;5.470;2023-05-16T00:47:43;9.60;84.10
78619;DHT22;67941;52.506;5.470;2023-05-16T00:50:12;9.70;84.20
78619;DHT22;67941;52.506;5.470;2023-05-16T00:52:43;9.70;84.20
78619;DHT22;67941;52.506;5.470;2023-05-16T00:55:13;9.70;84.20
78619;DHT22;67941;52.506;5.470;2023-05-16T00:57:45;9.70;84.20
78619;DHT22;67941;52.506;5.470;2023-05-16T01:00:15;9.70;84.20
78619;DHT22;67941;52.506;5.470;2023-05-16T01:02:44;9.80;84.20
78619;DHT22;67941;52.506;5.470;2023-05-16T01:05:14;9.80;84.20
78619;DHT22;67941;52.506;5.470;2023-05-16T01:07:43;9.80;84.20
78619;DHT22;67941;52.506;5.470;2023-05-16T01:10:12;9.80;84.30
78619;DHT22;67941;52.506;5.470;2023-05-16T01:12:47;9.80;84.30
78619;DHT22;67941;52.506;5.470;2023-05-16T01:15:26;9.80;84.20
78619;DHT22;67941;52.506;5.470;2023-05-16T01:17:59;9.80;84.10
78619;DHT22;67941;52.506;5.470;2023-05-16T01:20:38;9.80;84.00
78619;DHT22;67941;52.506;5.470;2023-05-16T01:23:19;9.70;83.70
78619;DHT22;67941;52.506;5.470;2023-05-16T01:26:19;9.70;83.60
78619;DHT22;67941;52.506;5.470;2023-05-16T01:28:50;9.60;83.50
78619;DHT22;67941;52.506;5.470;2023-05-16T01:31:20;9.50;83.40
78619;DHT22;67941;52.506;5.470;2023-05-16T01:33:50;9.50;83.40
78619;DHT22;67941;52.506;5.470;2023-05-16T01:36:24;9.50;83.70
78619;DHT22;67941;52.506;5.470;2023-05-16T01:39:00;9.50;83.90
78619;DHT22;67941;52.506;5.470;2023-05-16T01:41:40;9.50;83.90
78619;DHT22;67941;52.506;5.470;2023-05-16T01:44:18;9.50;83.90
78619;DHT22;67941;52.506;5.470;2023-05-16T01:46:54;9.50;83.90
78619;DHT22;67941;52.506;5.470;2023-05-16T01:49:29;9.40;83.70
78619;DHT22;67941;52.506;5.470;2023-05-16T01:52:01;9.40;83.80
78619;DHT22;67941;52.506;5.470;2023-05-16T01:54:36;9.50;84.00
78619;DHT22;67941;52.506;5.470;2023-05-16T01:57:08;9.50;84.10
78619;DHT22;67941;52.506;5.470;2023-05-16T01:59:38;9.50;84.00
78619;DHT22;67941;52.506;5.470;2023-05-16T02:02:09;9.50;84.00
78619;DHT22;67941;52.506;5.470;2023-05-16T02:04:38;9.50;84.00
78619;DHT22;67941;52.506;5.470;2023-05-16T02:07:07;9.50;83.80
78619;DHT22;67941;52.506;5.470;2023-05-16T02:09:36;9.50;83.70
78619;DHT22;67941;52.506;5.470;2023-05-16T02:12:09;9.40;83.70
78619;DHT22;67941;52.506;5.470;2023-05-16T02:14:38;9.40;83.80
78619;DHT22;67941;52.506;5.470;2023-05-16T02:17:07;9.40;83.90
78619;DHT22;67941;52.506;5.470;2023-05-16T02:19:36;9.50;84.00
78619;DHT22;67941;52.506;5.470;2023-05-16T02:22:06;9.50;84.10
78619;DHT22;67941;52.506;5.470;2023-05-16T02:24:35;9.50;84.20
78619;DHT22;67941;52.506;5.470;2023-05-16T02:27:07;9.60;84.10
78619;DHT22;67941;52.506;5.470;2023-05-16T02:29:36;9.60;84.10
78619;DHT22;67941;52.506;5.470;2023-05-16T02:32:06;9.60;84.10
78619;DHT22;67941;52.506;5.470;2023-05-16T02:34:35;9.60;84.10
78619;DHT22;67941;52.506;5.470;2023-05-16T02:37:04;9.60;84.20
78619;DHT22;67941;52.506;5.470;2023-05-16T02:39:33;9.60;84.10
78619;DHT22;67941;52.506;5.470;2023-05-16T02:42:03;9.60;84.00
78619;DHT22;67941;52.506;5.470;2023-05-16T02:44:34;9.60;83.90
78619;DHT22;67941;52.506;5.470;2023-05-16T02:47:06;9.50;83.80
78619;DHT22;67941;52.506;5.470;2023-05-16T02:49:34;9.50;83.80
78619;DHT22;67941;52.506;5.470;2023-05-16T02:52:04;9.40;83.80
78619;DHT22;67941;52.506;5.470;2023-05-16T02:54:33;9.40;83.90
78619;DHT22;67941;52.506;5.470;2023-05-16T02:57:02;9.40;84.00
78619;DHT22;67941;52.506;5.470;2023-05-16T02:59:34;9.50;84.10
78619;DHT22;67941;52.506;5.470;2023-05-16T03:02:03;9.50;84.00
78619;DHT22;67941;52.506;5.470;2023-05-16T03:04:32;9.50;84.10
78619;DHT22;67941;52.506;5.470;2023-05-16T03:07:01;9.50;84.00
78619;DHT22;67941;52.506;5.470;2023-05-16T03:09:30;9.50;83.90
78619;DHT22;67941;52.506;5.470;2023-05-16T03:11:59;9.50;83.90
78619;DHT22;67941;52.506;5.470;2023-05-16T03:14:28;9.50;83.80
78619;DHT22;67941;52.506;5.470;2023-05-16T03:16:59;9.50;83.70
78619;DHT22;67941;52.506;5.470;2023-05-16T03:19:28;9.50;83.60
78619;DHT22;67941;52.506;5.470;2023-05-16T03:21:57;9.50;83.50
78619;DHT22;67941;52.506;5.470;2023-05-16T03:24:26;9.50;83.40
78619;DHT22;67941;52.506;5.470;2023-05-16T03:26:55;9.40;83.40
78619;DHT22;67941;52.506;5.470;2023-05-16T03:29:24;9.40;83.30
78619;DHT22;67941;52.506;5.470;2023-05-16T03:31:53;9.40;83.10
78619;DHT22;67941;52.506;5.470;2023-05-16T03:34:24;9.30;83.10
78619;DHT22;67941;52.506;5.470;2023-05-16T03:36:53;9.30;83.20
78619;DHT22;67941;52.506;5.470;2023-05-16T03:39:22;9.30;83.40
78619;DHT22;67941;52.506;5.470;2023-05-16T03:41:51;9.30;83.40
78619;DHT22;67941;52.506;5.470;2023-05-16T03:44:21;9.30;83.50
78619;DHT22;67941;52.506;5.470;2023-05-16T03:46:50;9.40;83.40
78619;DHT22;67941;52.506;5.470;2023-05-16T03:49:26;9.40;83.50
78619;DHT22;67941;52.506;5.470;2023-05-16T03:51:55;9.40;83.50
78619;DHT22;67941;52.506;5.470;2023-05-16T03:54:24;9.40;83.50
78619;DHT22;67941;52.506;5.470;2023-05-16T03:56:53;9.50;83.50
78619;DHT22;67941;52.506;5.470;2023-05-16T03:59:21;9.50;83.50
78619;DHT22;67941;52.506;5.470;2023-05-16T04:01:50;9.50;83.40
78619;DHT22;67941;52.506;5.470;2023-05-16T04:04:19;9.50;83.40
78619;DHT22;67941;52.506;5.470;2023-05-16T04:06:50;9.50;83.30
78619;DHT22;67941;52.506;5.470;2023-05-16T04:09:19;9.50;83.20
78619;DHT22;67941;52.506;5.470;2023-05-16T04:11:48;9.40;82.90
78619;DHT22;67941;52.506;5.470;2023-05-16T04:14:17;9.40;82.80
78619;DHT22;67941;52.506;5.470;2023-05-16T04:16:46;9.30;82.80
78619;DHT22;67941;52.506;5.470;2023-05-16T04:19:15;9.20;82.90
78619;DHT22;67941;52.506;5.470;2023-05-16T04:21:43;9.20;82.90
78619;DHT22;67941;52.506;5.470;2023-05-16T04:24:15;9.20;83.00
78619;DHT22;67941;52.506;5.470;2023-05-16T04:26:44;9.20;83.20
78619;DHT22;67941;52.506;5.470;2023-05-16T04:29:13;9.20;83.30
78619;DHT22;67941;52.506;5.470;2023-05-16T04:31:42;9.20;83.40
78619;DHT22;67941;52.506;5.470;2023-05-16T04:34:12;9.40;83.40
78619;DHT22;67941;52.506;5.470;2023-05-16T04:36:41;9.40;83.40
78619;DHT22;67941;52.506;5.470;2023-05-16T04:39:10;9.40;83.20
78619;DHT22;67941;52.506;5.470;2023-05-16T04:41:42;9.40;83.20
78619;DHT22;67941;52.506;5.470;2023-05-16T04:44:11;9.30;83.10
78619;DHT22;67941;52.506;5.470;2023-05-16T04:46:40;9.30;83.00
78619;DHT22;67941;52.506;5.470;2023-05-16T04:49:09;9.30;83.20
78619;DHT22;67941;52.506;5.470;2023-05-16T04:51:39;9.30;83.30
78619;DHT22;67941;52.506;5.470;2023-05-16T04:54:08;9.40;83.30
78619;DHT22;67941;52.506;5.470;2023-05-16T04:56:36;9.40;83.40
78619;DHT22;67941;52.506;5.470;2023-05-16T04:59:09;9.40;83.50
78619;DHT22;67941;52.506;5.470;2023-05-16T05:01:38;9.40;83.40
78619;DHT22;67941;52.506;5.470;2023-05-16T05:04:07;9.40;83.30
78619;DHT22;67941;52.506;5.470;2023-05-16T05:06:36;9.40;83.20
78619;DHT22;67941;52.506;5.470;2023-05-16T05:09:06;9.40;83.10
78619;DHT22;67941;52.506;5.470;2023-05-16T05:11:35;9.40;83.00
78619;DHT22;67941;52.506;5.470;2023-05-16T05:14:04;9.40;83.00
78619;DHT22;67941;52.506;5.470;2023-05-16T05:16:35;9.40;83.00
78619;DHT22;67941;52.506;5.470;2023-05-16T05:19:04;9.40;83.00
78619;DHT22;67941;52.506;5.470;2023-05-16T05:21:35;9.40;83.10
78619;DHT22;67941;52.506;5.470;2023-05-16T05:24:05;9.40;83.10
78619;DHT22;67941;52.506;5.470;2023-05-16T05:26:34;9.40;83.00
78619;DHT22;67941;52.506;5.470;2023-05-16T05:29:03;9.40;83.10
78619;DHT22;67941;52.506;5.470;2023-05-16T05:31:35;9.40;83.20
78619;DHT22;67941;52.506;5.470;2023-05-16T05:34:04;9.50;83.50
78619;DHT22;67941;52.506;5.470;2023-05-16T05:36:32;9.60;83.30
78619;DHT22;67941;52.506;5.470;2023-05-16T05:39:01;9.60;83.20
78619;DHT22;67941;52.506;5.470;2023-05-16T05:41:31;9.80;83.60
78619;DHT22;67941;52.506;5.470;2023-05-16T05:44:00;10.00;83.70
78619;DHT22;67941;52.506;5.470;2023-05-16T05:46:29;10.10;83.60
78619;DHT22;67941;52.506;5.470;2023-05-16T05:49:00;10.10;83.20
78619;DHT22;67941;52.506;5.470;2023-05-16T05:51:29;10.10;83.20
78619;DHT22;67941;52.506;5.470;2023-05-16T05:53:58;10.10;83.40
78619;DHT22;67941;52.506;5.470;2023-05-16T05:56:27;10.10;83.60
78619;DHT22;67941;52.506;5.470;2023-05-16T05:58:56;10.20;83.70
78619;DHT22;67941;52.506;5.470;2023-05-16T06:01:24;10.20;83.90
78619;DHT22;67941;52.506;5.470;2023-05-16T06:03:54;10.20;84.00
78619;DHT22;67941;52.506;5.470;2023-05-16T06:06:25;10.30;84.00
78619;DHT22;67941;52.506;5.470;2023-05-16T06:08:54;10.30;84.00
78619;DHT22;67941;52.506;5.470;2023-05-16T06:11:23;10.30;84.00
78619;DHT22;67941;52.506;5.470;2023-05-16T06:13:52;10.40;84.00
78619;DHT22;67941;52.506;5.470;2023-05-16T06:16:23;10.50;84.10
78619;DHT22;67941;52.506;5.470;2023-05-16T06:18:52;10.60;83.90
78619;DHT22;67941;52.506;5.470;2023-05-16T06:21:21;10.50;83.50
78619;DHT22;67941;52.506;5.470;2023-05-16T06:23:52;10.50;83.30
78619;DHT22;67941;52.506;5.470;2023-05-16T06:26:21;10.40;83.20
78619;DHT22;67941;52.506;5.470;2023-05-16T06:28:50;10.40;83.30
78619;DHT22;67941;52.506;5.470;2023-05-16T06:31:19;10.40;83.30
78619;DHT22;67941;52.506;5.470;2023-05-16T06:33:47;10.30;83.20
78619;DHT22;67941;52.506;5.470;2023-05-16T06:36:16;10.30;83.30
78619;DHT22;67941;52.506;5.470;2023-05-16T06:38:45;10.40;83.40
78619;DHT22;67941;52.506;5.470;2023-05-16T06:41:17;10.40;83.50
78619;DHT22;67941;52.506;5.470;2023-05-16T06:43:46;10.50;83.40
78619;DHT22;67941;52.506;5.470;2023-05-16T06:46:15;10.50;83.00
78619;DHT22;67941;52.506;5.470;2023-05-16T06:48:43;10.30;82.60
78619;DHT22;67941;52.506;5.470;2023-05-16T06:51:12;10.20;82.40
78619;DHT22;67941;52.506;5.470;2023-05-16T06:53:41;10.10;82.40
78619;DHT22;67941;52.506;5.470;2023-05-16T06:56:10;10.00;82.30
78619;DHT22;67941;52.506;5.470;2023-05-16T06:58:41;9.80;82.20
78619;DHT22;67941;52.506;5.470;2023-05-16T07:01:13;9.70;82.40
78619;DHT22;67941;52.506;5.470;2023-05-16T07:03:42;9.60;82.60
78619;DHT22;67941;52.506;5.470;2023-05-16T07:06:11;9.50;82.60
78619;DHT22;67941;52.506;5.470;2023-05-16T07:08:40;9.40;82.40
78619;DHT22;67941;52.506;5.470;2023-05-16T07:11:09;9.40;82.30
78619;DHT22;67941;52.506;5.470;2023-05-16T07:13:41;9.30;82.40
78619;DHT22;67941;52.506;5.470;2023-05-16T07:16:09;9.20;82.70
78619;DHT22;67941;52.506;5.470;2023-05-16T07:18:39;9.30;82.90
78619;DHT22;67941;52.506;5.470;2023-05-16T07:21:08;9.40;83.00
78619;DHT22;67941;52.506;5.470;2023-05-16T07:23:37;9.40;83.20
78619;DHT22;67941;52.506;5.470;2023-05-16T07:26:06;9.40;83.30
78619;DHT22;67941;52.506;5.470;2023-05-16T07:28:36;9.50;83.40
78619;DHT22;67941;52.506;5.470;2023-05-16T07:31:07;9.70;83.50
78619;DHT22;67941;52.506;5.470;2023-05-16T07:33:39;9.80;83.60
78619;DHT22;67941;52.506;5.470;2023-05-16T07:36:08;10.00;83.70
78619;DHT22;67941;52.506;5.470;2023-05-16T07:38:36;10.10;83.70
78619;DHT22;67941;52.506;5.470;2023-05-16T07:41:06;10.30;84.00
78619;DHT22;67941;52.506;5.470;2023-05-16T07:43:35;10.50;84.10
78619;DHT22;67941;52.506;5.470;2023-05-16T07:46:06;10.60;84.00
78619;DHT22;67941;52.506;5.470;2023-05-16T07:48:35;10.80;83.90
78619;DHT22;67941;52.506;5.470;2023-05-16T07:51:04;10.90;83.60
78619;DHT22;67941;52.506;5.470;2023-05-16T07:53:33;10.90;83.40
78619;DHT22;67941;52.506;5.470;2023-05-16T07:56:02;11.00;83.40
78619;DHT22;67941;52.506;5.470;2023-05-16T07:58:31;11.00;83.30
78619;DHT22;67941;52.506;5.470;2023-05-16T08:01:00;11.10;83.50
78619;DHT22;67941;52.506;5.470;2023-05-16T08:03:32;11.20;83.60
78619;DHT22;67941;52.506;5.470;2023-05-16T08:06:00;11.40;83.50
78619;DHT22;67941;52.506;5.470;2023-05-16T08:08:29;11.50;83.40
78619;DHT22;67941;52.506;5.470;2023-05-16T08:10:58;11.60;83.50
78619;DHT22;67941;52.506;5.470;2023-05-16T08:13:27;11.80;83.50
78619;DHT22;67941;52.506;5.470;2023-05-16T08:15:56;11.90;83.40
78619;DHT22;67941;52.506;5.470;2023-05-16T08:18:25;12.00;83.30
78619;DHT22;67941;52.506;5.470;2023-05-16T08:20:56;12.10;83.30
78619;DHT22;67941;52.506;5.470;2023-05-16T08:23:25;12.20;83.10
78619;DHT22;67941;52.506;5.470;2023-05-16T08:25:54;12.40;83.20
78619;DHT22;67941;52.506;5.470;2023-05-16T08:28:23;12.50;83.30
78619;DHT22;67941;52.506;5.470;2023-05-16T08:30:52;12.70;83.20
78619;DHT22;67941;52.506;5.470;2023-05-16T08:33:21;12.80;83.00
78619;DHT22;67941;52.506;5.470;2023-05-16T08:35:50;12.80;82.50
78619;DHT22;67941;52.506;5.470;2023-05-16T08:38:22;12.90;82.50
78619;DHT22;67941;52.506;5.470;2023-05-16T08:40:51;12.90;82.60
78619;DHT22;67941;52.506;5.470;2023-05-16T08:43:21;13.00;82.80
78619;DHT22;67941;52.506;5.470;2023-05-16T08:45:50;13.20;83.20
78619;DHT22;67941;52.506;5.470;2023-05-16T08:48:22;13.40;83.10
78619;DHT22;67941;52.506;5.470;2023-05-16T08:50:51;13.50;82.80
78619;DHT22;67941;52.506;5.470;2023-05-16T08:53:31;13.60;82.70
78619;DHT22;67941;52.506;5.470;2023-05-16T08:56:05;13.70;82.80
78619;DHT22;67941;52.506;5.470;2023-05-16T08:58:35;13.80;82.50
78619;DHT22;67941;52.506;5.470;2023-05-16T09:01:04;13.90;82.40
78619;DHT22;67941;52.506;5.470;2023-05-16T09:03:35;13.90;82.00
78619;DHT22;67941;52.506;5.470;2023-05-16T09:06:05;13.90;82.20
78619;DHT22;67941;52.506;5.470;2023-05-16T09:08:36;13.90;82.40
78619;DHT22;67941;52.506;5.470;2023-05-16T09:11:05;14.10;82.50
78619;DHT22;67941;52.506;5.470;2023-05-16T09:13:34;14.20;82.00
78619;DHT22;67941;52.506;5.470;2023-05-16T09:16:10;14.10;80.90
78619;DHT22;67941;52.506;5.470;2023-05-16T09:19:00;13.90;80.30
78619;DHT22;67941;52.506;5.470;2023-05-16T09:21:31;13.60;80.60
78619;DHT22;67941;52.506;5.470;2023-05-16T09:24:06;13.50;80.70
78619;DHT22;67941;52.506;5.470;2023-05-16T09:26:36;13.50;80.60
78619;DHT22;67941;52.506;5.470;2023-05-16T09:29:09;13.40;80.70
78619;DHT22;67941;52.506;5.470;2023-05-16T09:31:39;13.40;80.50
78619;DHT22;67941;52.506;5.470;2023-05-16T09:34:09;13.40;80.50
78619;DHT22;67941;52.506;5.470;2023-05-16T09:36:38;13.50;80.40
78619;DHT22;67941;52.506;5.470;2023-05-16T09:39:14;13.50;80.30
78619;DHT22;67941;52.506;5.470;2023-05-16T09:41:43;13.50;80.70
78619;DHT22;67941;52.506;5.470;2023-05-16T09:44:12;13.70;80.80
78619;DHT22;67941;52.506;5.470;2023-05-16T09:46:40;13.90;80.80
78619;DHT22;67941;52.506;5.470;2023-05-16T09:49:11;14.00;80.70
78619;DHT22;67941;52.506;5.470;2023-05-16T09:51:40;14.00;80.10
78619;DHT22;67941;52.506;5.470;2023-05-16T09:54:11;14.00;79.90
78619;DHT22;67941;52.506;5.470;2023-05-16T09:56:50;14.00;79.80
78619;DHT22;67941;52.506;5.470;2023-05-16T09:59:18;13.90;79.50
78619;DHT22;67941;52.506;5.470;2023-05-16T10:01:49;13.80;79.30
78619;DHT22;67941;52.506;5.470;2023-05-16T10:04:20;13.60;79.10
78619;DHT22;67941;52.506;5.470;2023-05-16T10:06:50;13.50;79.10
78619;DHT22;67941;52.506;5.470;2023-05-16T10:09:22;13.50;79.20
78619;DHT22;67941;52.506;5.470;2023-05-16T10:11:51;13.50;79.40
78619;DHT22;67941;52.506;5.470;2023-05-16T10:14:21;13.50;79.70
78619;DHT22;67941;52.506;5.470;2023-05-16T10:16:51;13.60;79.60
78619;DHT22;67941;52.506;5.470;2023-05-16T10:19:21;13.80;79.40
78619;DHT22;67941;52.506;5.470;2023-05-16T10:21:56;13.90;79.20
78619;DHT22;67941;52.506;5.470;2023-05-16T10:24:35;13.90;78.80
78619;DHT22;67941;52.506;5.470;2023-05-16T10:27:04;13.90;78.60
78619;DHT22;67941;52.506;5.470;2023-05-16T10:29:34;13.90;78.70
78619;DHT22;67941;52.506;5.470;2023-05-16T10:32:04;13.90;79.30
78619;DHT22;67941;52.506;5.470;2023-05-16T10:34:34;14.00;79.30
78619;DHT22;67941;52.506;5.470;2023-05-16T10:37:03;14.10;79.30
78619;DHT22;67941;52.506;5.470;2023-05-16T10:39:35;14.20;79.00
78619;DHT22;67941;52.506;5.470;2023-05-16T10:42:06;14.30;79.00
78619;DHT22;67941;52.506;5.470;2023-05-16T10:44:38;14.50;79.10
78619;DHT22;67941;52.506;5.470;2023-05-16T10:47:07;14.70;79.00
78619;DHT22;67941;52.506;5.470;2023-05-16T10:49:39;14.80;79.40
78619;DHT22;67941;52.506;5.470;2023-05-16T10:52:09;15.00;79.40
78619;DHT22;67941;52.506;5.470;2023-05-16T10:54:42;15.30;79.30
78619;DHT22;67941;52.506;5.470;2023-05-16T10:57:17;15.40;78.50
78619;DHT22;67941;52.506;5.470;2023-05-16T10:59:48;15.30;78.00
78619;DHT22;67941;52.506;5.470;2023-05-16T11:02:23;15.20;77.80
78619;DHT22;67941;52.506;5.470;2023-05-16T11:04:55;15.10;77.90
78619;DHT22;67941;52.506;5.470;2023-05-16T11:07:25;15.00;77.90
78619;DHT22;67941;52.506;5.470;2023-05-16T11:10:05;15.00;77.90
78619;DHT22;67941;52.506;5.470;2023-05-16T11:12:42;15.00;78.20
78619;DHT22;67941;52.506;5.470;2023-05-16T11:15:20;15.20;78.40
78619;DHT22;67941;52.506;5.470;2023-05-16T11:17:50;15.30;78.50
78619;DHT22;67941;52.506;5.470;2023-05-16T11:20:25;15.50;78.60
78619;DHT22;67941;52.506;5.470;2023-05-16T11:23:18;15.60;78.50
78619;DHT22;67941;52.506;5.470;2023-05-16T11:25:52;15.90;78.40
78619;DHT22;67941;52.506;5.470;2023-05-16T11:28:23;16.10;78.50
78619;DHT22;67941;52.506;5.470;2023-05-16T11:30:53;16.20;78.00
78619;DHT22;67941;52.506;5.470;2023-05-16T11:33:23;16.20;77.90
78619;DHT22;67941;52.506;5.470;2023-05-16T11:36:02;16.20;77.60
78619;DHT22;67941;52.506;5.470;2023-05-16T11:38:31;16.20;77.50
78619;DHT22;67941;52.506;5.470;2023-05-16T11:41:07;16.20;78.00
78619;DHT22;67941;52.506;5.470;2023-05-16T11:43:40;16.40;77.60
78619;DHT22;67941;52.506;5.470;2023-05-16T11:46:12;16.40;77.50
78619;DHT22;67941;52.506;5.470;2023-05-16T11:48:42;16.20;77.40
78619;DHT22;67941;52.506;5.470;2023-05-16T11:51:12;16.20;77.50
78619;DHT22;67941;52.506;5.470;2023-05-16T11:53:43;16.30;77.60
78619;DHT22;67941;52.506;5.470;2023-05-16T11:56:15;16.30;77.50
78619;DHT22;67941;52.506;5.470;2023-05-16T11:58:44;16.40;77.60
78619;DHT22;67941;52.506;5.470;2023-05-16T12:01:13;16.50;77.40
78619;DHT22;67941;52.506;5.470;2023-05-16T12:03:41;16.50;77.30
78619;DHT22;67941;52.506;5.470;2023-05-16T12:06:10;16.50;77.20
78619;DHT22;67941;52.506;5.470;2023-05-16T12:08:48;16.50;76.90
78619;DHT22;67941;52.506;5.470;2023-05-16T12:11:22;16.50;76.50
78619;DHT22;67941;52.506;5.470;2023-05-16T12:13:51;16.40;76.20
78619;DHT22;67941;52.506;5.470;2023-05-16T12:16:20;16.10;76.00
78619;DHT22;67941;52.506;5.470;2023-05-16T12:18:50;15.90;75.90
78619;DHT22;67941;52.506;5.470;2023-05-16T12:21:19;15.80;76.20
78619;DHT22;67941;52.506;5.470;2023-05-16T12:23:48;15.80;76.50
78619;DHT22;67941;52.506;5.470;2023-05-16T12:26:25;15.80;76.40
78619;DHT22;67941;52.506;5.470;2023-05-16T12:28:56;16.00;76.00
78619;DHT22;67941;52.506;5.470;2023-05-16T12:31:28;16.00;76.10
78619;DHT22;67941;52.506;5.470;2023-05-16T12:33:57;16.20;75.90
78619;DHT22;67941;52.506;5.470;2023-05-16T12:36:31;16.40;75.60
78619;DHT22;67941;52.506;5.470;2023-05-16T12:39:00;16.50;75.50
78619;DHT22;67941;52.506;5.470;2023-05-16T12:41:39;16.70;75.60
78619;DHT22;67941;52.506;5.470;2023-05-16T12:44:12;16.80;75.10
78619;DHT22;67941;52.506;5.470;2023-05-16T12:46:43;16.90;75.20
78619;DHT22;67941;52.506;5.470;2023-05-16T12:49:13;17.00;74.90
78619;DHT22;67941;52.506;5.470;2023-05-16T12:51:48;16.90;74.70
78619;DHT22;67941;52.506;5.470;2023-05-16T12:54:17;16.90;74.00
78619;DHT22;67941;52.506;5.470;2023-05-16T12:56:50;16.70;73.80
78619;DHT22;67941;52.506;5.470;2023-05-16T12:59:19;16.50;73.90
78619;DHT22;67941;52.506;5.470;2023-05-16T13:01:47;16.50;74.20
78619;DHT22;67941;52.506;5.470;2023-05-16T13:04:16;16.40;73.80
78619;DHT22;67941;52.506;5.470;2023-05-16T13:06:45;16.30;73.60
78619;DHT22;67941;52.506;5.470;2023-05-16T13:09:14;16.10;73.40
78619;DHT22;67941;52.506;5.470;2023-05-16T13:11:42;15.90;73.50
78619;DHT22;67941;52.506;5.470;2023-05-16T13:14:14;15.80;73.60
78619;DHT22;67941;52.506;5.470;2023-05-16T13:16:43;15.60;73.70
78619;DHT22;67941;52.506;5.470;2023-05-16T13:19:12;15.50;73.80
78619;DHT22;67941;52.506;5.470;2023-05-16T13:21:40;15.50;73.90
78619;DHT22;67941;52.506;5.470;2023-05-16T13:24:09;15.40;74.20
78619;DHT22;67941;52.506;5.470;2023-05-16T13:26:38;15.50;74.40
78619;DHT22;67941;52.506;5.470;2023-05-16T13:29:07;15.70;74.30
78619;DHT22;67941;52.506;5.470;2023-05-16T13:31:39;15.90;74.40
78619;DHT22;67941;52.506;5.470;2023-05-16T13:34:08;16.10;74.10
78619;DHT22;67941;52.506;5.470;2023-05-16T13:36:37;16.30;73.80
78619;DHT22;67941;52.506;5.470;2023-05-16T13:39:06;16.40;73.70
78619;DHT22;67941;52.506;5.470;2023-05-16T13:41:35;16.40;73.40
78619;DHT22;67941;52.506;5.470;2023-05-16T13:44:05;16.40;73.40
78619;DHT22;67941;52.506;5.470;2023-05-16T13:46:34;16.30;73.30
78619;DHT22;67941;52.506;5.470;2023-05-16T13:49:06;16.10;73.20
78619;DHT22;67941;52.506;5.470;2023-05-16T13:51:35;16.00;73.10
78619;DHT22;67941;52.506;5.470;2023-05-16T13:54:03;16.00;73.40
78619;DHT22;67941;52.506;5.470;2023-05-16T13:56:32;16.00;73.80
78619;DHT22;67941;52.506;5.470;2023-05-16T13:59:01;16.10;74.00
78619;DHT22;67941;52.506;5.470;2023-05-16T14:01:30;16.30;73.80
78619;DHT22;67941;52.506;5.470;2023-05-16T14:03:59;16.30;73.40
78619;DHT22;67941;52.506;5.470;2023-05-16T14:06:30;16.30;73.60
78619;DHT22;67941;52.506;5.470;2023-05-16T14:08:59;16.40;73.40
78619;DHT22;67941;52.506;5.470;2023-05-16T14:11:31;16.40;73.20
78619;DHT22;67941;52.506;5.470;2023-05-16T14:14:00;16.40;72.90
78619;DHT22;67941;52.506;5.470;2023-05-16T14:16:30;16.20;72.70
78619;DHT22;67941;52.506;5.470;2023-05-16T14:18:59;16.10;72.70
78619;DHT22;67941;52.506;5.470;2023-05-16T14:21:30;16.00;72.70
78619;DHT22;67941;52.506;5.470;2023-05-16T14:23:59;16.00;72.60
78619;DHT22;67941;52.506;5.470;2023-05-16T14:26:28;15.80;72.80
78619;DHT22;67941;52.506;5.470;2023-05-16T14:28:57;15.80;72.90
78619;DHT22;67941;52.506;5.470;2023-05-16T14:31:26;15.90;72.70
78619;DHT22;67941;52.506;5.470;2023-05-16T14:33:55;16.00;72.70
78619;DHT22;67941;52.506;5.470;2023-05-16T14:36:26;16.00;72.70
78619;DHT22;67941;52.506;5.470;2023-05-16T14:38:59;16.00;73.00
78619;DHT22;67941;52.506;5.470;2023-05-16T14:41:28;16.10;73.00
78619;DHT22;67941;52.506;5.470;2023-05-16T14:43:56;16.20;73.00
78619;DHT22;67941;52.506;5.470;2023-05-16T14:46:25;16.40;72.70
78619;DHT22;67941;52.506;5.470;2023-05-16T14:48:54;16.40;72.70
78619;DHT22;67941;52.506;5.470;2023-05-16T14:51:23;16.40;72.80
78619;DHT22;67941;52.506;5.470;2023-05-16T14:53:52;16.50;72.90
78619;DHT22;67941;52.506;5.470;2023-05-16T14:56:23;16.50;72.60
78619;DHT22;67941;52.506;5.470;2023-05-16T14:58:53;16.40;72.20
78619;DHT22;67941;52.506;5.470;2023-05-16T15:01:22;16.40;72.20
78619;DHT22;67941;52.506;5.470;2023-05-16T15:03:51;16.20;72.20
78619;DHT22;67941;52.506;5.470;2023-05-16T15:06:20;16.10;72.00
78619;DHT22;67941;52.506;5.470;2023-05-16T15:08:49;16.10;71.90
78619;DHT22;67941;52.506;5.470;2023-05-16T15:11:18;16.00;71.80
78619;DHT22;67941;52.506;5.470;2023-05-16T15:13:49;15.90;71.80
78619;DHT22;67941;52.506;5.470;2023-05-16T15:16:18;15.80;71.70
78619;DHT22;67941;52.506;5.470;2023-05-16T15:18:47;15.60;71.80
78619;DHT22;67941;52.506;5.470;2023-05-16T15:21:16;15.60;71.90
78619;DHT22;67941;52.506;5.470;2023-05-16T15:23:45;15.60;71.90
78619;DHT22;67941;52.506;5.470;2023-05-16T15:26:15;15.60;71.70
78619;DHT22;67941;52.506;5.470;2023-05-16T15:28:44;15.60;71.80
78619;DHT22;67941;52.506;5.470;2023-05-16T15:31:16;15.60;71.90
78619;DHT22;67941;52.506;5.470;2023-05-16T15:33:45;15.60;71.90
78619;DHT22;67941;52.506;5.470;2023-05-16T15:36:13;15.60;71.80
78619;DHT22;67941;52.506;5.470;2023-05-16T15:38:42;15.60;71.80
78619;DHT22;67941;52.506;5.470;2023-05-16T15:41:12;15.60;71.60
78619;DHT22;67941;52.506;5.470;2023-05-16T15:43:41;15.60;71.80
78619;DHT22;67941;52.506;5.470;2023-05-16T15:46:10;15.60;71.90
78619;DHT22;67941;52.506;5.470;2023-05-16T15:48:41;15.50;71.80
78619;DHT22;67941;52.506;5.470;2023-05-16T15:51:11;15.40;71.60
78619;DHT22;67941;52.506;5.470;2023-05-16T15:53:40;15.30;71.70
78619;DHT22;67941;52.506;5.470;2023-05-16T15:56:09;15.30;71.80